Terminal Aerodrome Forecast
Issued by NWS Sioux Falls, SD

Home | Current Version | Previous Version | Text Only | Print | Product List | Glossary On
Versions: 1 2 3 4 5 6 7 8 9 10 11 12
000
FTUS43 KFSD 150520
TAFFSD
TAF
KFSD 150520Z 1506/1606 03005KT P6SM -SHRA OVC040
      TEMPO 1506/1510 4SM -SHRA BR OVC035
     FM151100 35008KT P6SM SCT040
     FM160000 VRB03KT P6SM FEW040=

USA.gov is the U.S. government's official web portal to all federal, state and local government web resources and services.